Time;durP1;ratioP1;P1;durP2;ratioP2;P2;SDS_P1;SDS_P2;PMS_P1;PMS_P2;Temp;Humidity;BMP_temperature;BMP_pressure;BME280_temperature;BME280_humidity;BME280_pressure;Samples;Min_cycle;Max_cycle;Signal;HPM_P1;HPM_P2
2023/11/18 00:02:19;;;;;;;;;;;12.30;91.80;;;;;;5067643;28;19921;-70
2023/11/18 00:04:45;;;;;;;;;;;12.40;91.80;;;;;;5067603;28;19970;-70
2023/11/18 00:07:10;;;;;;;;;;;12.40;91.80;;;;;;5068000;28;19973;-71
2023/11/18 00:09:36;;;;;;;;;;;12.50;91.90;;;;;;5067538;28;19908;-70
2023/11/18 00:12:03;;;;;;;;;;;12.50;91.90;;;;;;5067426;28;19924;-71
2023/11/18 00:14:29;;;;;;;;;;;12.60;91.90;;;;;;5067335;28;19969;-71
2023/11/18 00:16:55;;;;;;;;;;;12.60;91.90;;;;;;5067057;28;19912;-70
2023/11/18 00:19:20;;;;;;;;;;;12.60;91.90;;;;;;5069203;28;19921;-70
2023/11/18 00:21:46;;;;;;;;;;;12.70;92.00;;;;;;5071564;28;19920;-71
2023/11/18 00:24:13;;;;;;;;;;;12.70;91.90;;;;;;5070238;28;19962;-70
2023/11/18 00:26:38;;;;;;;;;;;12.80;91.90;;;;;;5071607;28;19973;-71
2023/11/18 00:29:04;;;;;;;;;;;12.80;91.90;;;;;;5053523;28;20416;-71
2023/11/18 00:31:29;;;;;;;;;;;12.80;91.90;;;;;;5071348;28;19919;-71
2023/11/18 00:33:55;;;;;;;;;;;12.90;92.00;;;;;;5071497;28;20043;-71
2023/11/18 00:36:21;;;;;;;;;;;12.90;92.00;;;;;;5071354;28;19920;-70
2023/11/18 00:38:47;;;;;;;;;;;13.00;92.00;;;;;;5071253;28;19912;-70
2023/11/18 00:41:12;;;;;;;;;;;13.00;92.00;;;;;;5071110;28;19970;-71
2023/11/18 00:43:38;;;;;;;;;;;13.00;92.00;;;;;;5071173;28;19977;-71
2023/11/18 00:46:05;;;;;;;;;;;13.10;92.00;;;;;;5069854;28;19999;-71
2023/11/18 00:48:30;;;;;;;;;;;13.10;92.00;;;;;;5071130;28;19918;-71
2023/11/18 00:50:56;;;;;;;;;;;13.10;92.00;;;;;;5070966;28;20023;-71
2023/11/18 00:53:22;;;;;;;;;;;13.20;92.00;;;;;;5070956;28;19923;-71
2023/11/18 00:55:47;;;;;;;;;;;13.20;92.00;;;;;;5071037;28;19913;-71
2023/11/18 00:58:13;;;;;;;;;;;13.20;92.00;;;;;;5071143;28;19962;-71
2023/11/18 01:00:39;;;;;;;;;;;13.30;92.10;;;;;;5070949;28;19908;-71
2023/11/18 01:03:04;;;;;;;;;;;13.30;92.10;;;;;;5070840;28;20249;-70
2023/11/18 01:05:31;;;;;;;;;;;13.30;92.10;;;;;;5070851;28;19919;-71
2023/11/18 01:07:57;;;;;;;;;;;13.40;92.10;;;;;;5070674;28;19920;-73
2023/11/18 01:10:22;;;;;;;;;;;13.40;92.10;;;;;;5070608;28;19909;-71
2023/11/18 01:12:48;;;;;;;;;;;13.50;92.10;;;;;;5070373;28;19918;-71
2023/11/18 01:15:14;;;;;;;;;;;13.50;92.10;;;;;;5070819;28;20004;-71
2023/11/18 01:17:40;;;;;;;;;;;13.50;92.10;;;;;;5070629;28;19954;-71
2023/11/18 01:20:10;;;;;;;;;;;13.60;92.10;;;;;;5070492;28;19918;-71
2023/11/18 01:22:39;;;;;;;;;;;13.60;92.10;;;;;;5070559;28;19908;-71
2023/11/18 01:25:05;;;;;;;;;;;13.60;92.10;;;;;;5070442;28;19917;-71
2023/11/18 01:27:33;;;;;;;;;;;13.60;92.10;;;;;;5070491;28;19990;-71
2023/11/18 01:29:59;;;;;;;;;;;13.60;92.10;;;;;;5068380;28;19908;-71
2023/11/18 01:32:25;;;;;;;;;;;13.60;92.10;;;;;;5070171;28;19928;-71
2023/11/18 01:34:51;;;;;;;;;;;13.60;92.10;;;;;;5070321;28;20053;-71
2023/11/18 01:37:17;;;;;;;;;;;13.70;92.10;;;;;;5070313;28;19922;-71
2023/11/18 01:39:43;;;;;;;;;;;13.70;92.10;;;;;;5070246;28;20343;-71
2023/11/18 01:42:08;;;;;;;;;;;13.70;92.10;;;;;;5070163;28;20246;-70
2023/11/18 01:44:35;;;;;;;;;;;13.70;92.20;;;;;;5070160;28;19939;-70
2023/11/18 01:47:10;;;;;;;;;;;13.70;92.20;;;;;;5070497;28;19912;-71
2023/11/18 01:49:39;;;;;;;;;;;13.70;92.10;;;;;;5070121;28;20085;-71
2023/11/18 01:52:07;;;;;;;;;;;13.70;92.10;;;;;;5069916;28;19924;-71
2023/11/18 01:54:34;;;;;;;;;;;13.80;92.20;;;;;;5068498;28;19923;-71
2023/11/18 01:57:03;;;;;;;;;;;13.70;92.10;;;;;;5069983;28;20314;-71
2023/11/18 01:59:29;;;;;;;;;;;13.80;92.20;;;;;;5068607;28;19934;-71
2023/11/18 02:01:59;;;;;;;;;;;13.80;92.20;;;;;;5069517;28;20510;-71
2023/11/18 02:04:25;;;;;;;;;;;13.80;92.20;;;;;;5069676;28;20280;-71
2023/11/18 02:06:50;;;;;;;;;;;13.80;92.20;;;;;;5069751;28;19912;-71
2023/11/18 02:09:27;;;;;;;;;;;13.90;92.20;;;;;;5068465;28;19931;-71
2023/11/18 02:11:54;;;;;;;;;;;13.90;92.20;;;;;;5068195;28;20357;-71
2023/11/18 02:14:20;;;;;;;;;;;13.90;92.20;;;;;;5069522;28;19908;-71
2023/11/18 02:16:48;;;;;;;;;;;13.90;92.20;;;;;;5069363;28;19948;-71
2023/11/18 02:19:19;;;;;;;;;;;13.90;92.20;;;;;;5069443;28;19912;-71
2023/11/18 02:21:45;;;;;;;;;;;13.90;92.20;;;;;;5069394;28;20348;-71
2023/11/18 02:24:11;;;;;;;;;;;14.00;92.30;;;;;;5069383;28;20081;-71
2023/11/18 02:26:36;;;;;;;;;;;14.00;92.30;;;;;;5069399;28;20401;-71
2023/11/18 02:29:02;;;;;;;;;;;14.00;92.30;;;;;;5069245;28;20043;-71
2023/11/18 02:31:33;;;;;;;;;;;14.00;92.30;;;;;;5069060;28;20361;-71
2023/11/18 02:34:03;;;;;;;;;;;14.00;92.30;;;;;;5069253;28;19913;-71
2023/11/18 02:36:36;;;;;;;;;;;14.00;92.30;;;;;;5069020;28;19919;-71
2023/11/18 02:39:08;;;;;;;;;;;14.00;92.30;;;;;;5069032;28;19918;-71
2023/11/18 02:41:38;;;;;;;;;;;14.00;92.30;;;;;;5068041;28;19919;-71
2023/11/18 02:44:10;;;;;;;;;;;14.00;92.30;;;;;;5068977;28;19916;-71
2023/11/18 02:46:38;;;;;;;;;;;14.00;92.30;;;;;;5068819;28;19908;-71
2023/11/18 02:49:04;;;;;;;;;;;14.10;92.30;;;;;;5068991;28;19912;-71
2023/11/18 02:51:31;;;;;;;;;;;14.10;92.30;;;;;;5068622;28;20237;-71
2023/11/18 02:53:57;;;;;;;;;;;14.10;92.30;;;;;;5068665;28;19916;-71
2023/11/18 02:56:22;;;;;;;;;;;14.10;92.30;;;;;;5068759;28;19959;-71
2023/11/18 02:58:48;;;;;;;;;;;14.10;92.30;;;;;;5068687;28;19951;-70
2023/11/18 03:01:14;;;;;;;;;;;14.10;92.30;;;;;;5068465;28;19917;-71
2023/11/18 03:03:39;;;;;;;;;;;14.10;92.30;;;;;;5068601;28;19912;-71
2023/11/18 03:06:06;;;;;;;;;;;14.00;92.50;;;;;;5068645;28;19917;-71
2023/11/18 03:08:31;;;;;;;;;;;14.00;92.30;;;;;;5068313;28;19932;-71
2023/11/18 03:10:58;;;;;;;;;;;14.00;92.30;;;;;;5068486;28;19923;-71
2023/11/18 03:13:24;;;;;;;;;;;14.00;92.40;;;;;;5068377;28;19959;-71
2023/11/18 03:15:50;;;;;;;;;;;14.10;92.40;;;;;;5068407;28;19947;-71
2023/11/18 03:18:16;;;;;;;;;;;14.10;92.40;;;;;;5068239;28;19908;-71
2023/11/18 03:20:41;;;;;;;;;;;14.10;92.30;;;;;;5068336;28;19916;-71
2023/11/18 03:23:09;;;;;;;;;;;14.10;92.30;;;;;;5068167;28;19916;-71
2023/11/18 03:25:35;;;;;;;;;;;14.10;92.30;;;;;;5066865;28;19965;-70
2023/11/18 03:28:01;;;;;;;;;;;14.10;92.30;;;;;;5068280;28;19916;-71
2023/11/18 03:30:28;;;;;;;;;;;14.10;92.40;;;;;;5068222;28;19909;-71
2023/11/18 03:32:54;;;;;;;;;;;14.10;92.30;;;;;;5067995;28;19916;-71
2023/11/18 03:35:20;;;;;;;;;;;14.10;92.30;;;;;;5068143;28;19912;-71
2023/11/18 03:37:46;;;;;;;;;;;14.10;92.30;;;;;;5067951;28;19988;-71
2023/11/18 03:40:12;;;;;;;;;;;14.10;92.30;;;;;;5068025;28;20004;-71
2023/11/18 03:42:39;;;;;;;;;;;14.20;92.40;;;;;;5067974;28;19958;-71
2023/11/18 03:45:05;;;;;;;;;;;14.20;92.40;;;;;;5068015;28;19919;-71
2023/11/18 03:47:31;;;;;;;;;;;14.20;92.40;;;;;;5066756;28;19916;-70
2023/11/18 03:49:56;;;;;;;;;;;14.20;92.40;;;;;;5067992;28;19962;-70
2023/11/18 03:52:22;;;;;;;;;;;14.20;92.40;;;;;;5067459;28;19939;-71
2023/11/18 03:54:48;;;;;;;;;;;14.30;92.40;;;;;;5067827;28;19919;-71
2023/11/18 03:57:14;;;;;;;;;;;14.30;92.40;;;;;;5067708;28;20043;-71
2023/11/18 03:59:40;;;;;;;;;;;14.30;92.40;;;;;;5067771;28;19908;-71
2023/11/18 04:02:06;;;;;;;;;;;14.30;92.40;;;;;;5066199;28;19924;-71
2023/11/18 04:04:33;;;;;;;;;;;14.30;92.40;;;;;;5067115;28;20276;-71
2023/11/18 04:07:02;;;;;;;;;;;14.30;92.40;;;;;;5067845;28;20294;-71
2023/11/18 04:09:27;;;;;;;;;;;14.30;92.40;;;;;;5066586;28;19919;-71
2023/11/18 04:11:53;;;;;;;;;;;14.30;92.40;;;;;;5067629;28;19932;-71
2023/11/18 04:14:18;;;;;;;;;;;14.30;92.40;;;;;;5067731;28;20026;-71
2023/11/18 04:16:47;;;;;;;;;;;14.30;92.40;;;;;;5067635;28;20276;-70
2023/11/18 04:19:13;;;;;;;;;;;14.40;92.40;;;;;;5067626;28;19908;-71
2023/11/18 04:21:39;;;;;;;;;;;14.40;92.40;;;;;;5067504;28;20246;-70
2023/11/18 04:24:05;;;;;;;;;;;14.40;92.40;;;;;;5067648;28;19917;-71
2023/11/18 04:26:31;;;;;;;;;;;14.40;92.40;;;;;;5067683;28;19925;-71
2023/11/18 04:28:57;;;;;;;;;;;14.40;92.50;;;;;;5067569;28;19919;-70
2023/11/18 04:31:23;;;;;;;;;;;14.30;92.40;;;;;;5066181;28;20376;-71
2023/11/18 04:33:48;;;;;;;;;;;14.40;92.50;;;;;;5067917;28;19917;-70
2023/11/18 04:36:16;;;;;;;;;;;14.30;92.40;;;;;;5067479;28;19966;-71
2023/11/18 04:38:41;;;;;;;;;;;14.30;92.40;;;;;;5067491;28;19908;-71
2023/11/18 04:41:07;;;;;;;;;;;14.30;92.50;;;;;;5067450;28;19969;-70
2023/11/18 04:43:33;;;;;;;;;;;14.30;92.50;;;;;;5067470;28;19908;-71
2023/11/18 04:45:59;;;;;;;;;;;14.30;92.50;;;;;;5067238;28;19912;-71
2023/11/18 04:48:24;;;;;;;;;;;14.30;92.50;;;;;;5067301;28;20284;-70
2023/11/18 04:50:50;;;;;;;;;;;14.30;92.50;;;;;;5067170;28;19913;-71
2023/11/18 04:53:16;;;;;;;;;;;14.30;92.50;;;;;;5067111;28;19913;-70
2023/11/18 04:55:41;;;;;;;;;;;14.40;92.50;;;;;;5067197;28;20011;-71
2023/11/18 04:58:09;;;;;;;;;;;14.40;92.50;;;;;;5067267;28;20364;-70
2023/11/18 05:00:41;;;;;;;;;;;14.40;92.50;;;;;;5067200;28;19912;-71
2023/11/18 05:03:10;;;;;;;;;;;14.40;92.50;;;;;;5067151;28;19924;-71
2023/11/18 05:05:37;;;;;;;;;;;14.40;92.50;;;;;;5068673;28;19920;-71
2023/11/18 05:08:04;;;;;;;;;;;14.40;92.50;;;;;;5070857;28;20319;-71
2023/11/18 05:10:30;;;;;;;;;;;14.40;92.50;;;;;;5070757;28;20371;-71
2023/11/18 05:12:55;;;;;;;;;;;14.40;92.50;;;;;;5070592;28;20011;-71
2023/11/18 05:15:24;;;;;;;;;;;14.40;92.50;;;;;;5069275;28;19923;-71
2023/11/18 05:17:50;;;;;;;;;;;14.40;92.70;;;;;;5070692;28;19956;-71
2023/11/18 05:20:16;;;;;;;;;;;14.30;92.40;;;;;;5070649;28;19956;-71
2023/11/18 05:22:42;;;;;;;;;;;14.20;92.40;;;;;;5070635;28;19974;-70
2023/11/18 05:25:09;;;;;;;;;;;14.20;92.50;;;;;;5070605;28;20380;-71
2023/11/18 05:27:35;;;;;;;;;;;14.20;92.50;;;;;;5070609;28;19979;-71
2023/11/18 05:30:00;;;;;;;;;;;14.10;92.50;;;;;;5070574;28;20383;-71
2023/11/18 05:32:27;;;;;;;;;;;14.10;92.50;;;;;;5052244;28;20284;-70
2023/11/18 05:34:54;;;;;;;;;;;14.00;92.50;;;;;;5070420;28;20376;-70
2023/11/18 05:37:20;;;;;;;;;;;14.00;92.50;;;;;;5070595;28;19952;-70
2023/11/18 05:39:46;;;;;;;;;;;14.00;92.50;;;;;;5070341;28;19916;-70
2023/11/18 05:42:11;;;;;;;;;;;13.90;92.50;;;;;;5070225;28;20284;-70
2023/11/18 05:44:39;;;;;;;;;;;13.90;92.50;;;;;;5070154;28;19923;-70
2023/11/18 05:47:05;;;;;;;;;;;13.90;92.50;;;;;;5070095;28;19913;-70
2023/11/18 05:49:31;;;;;;;;;;;13.90;92.60;;;;;;5070146;28;20003;-71
2023/11/18 05:51:57;;;;;;;;;;;13.90;92.60;;;;;;5069875;28;20468;-71
2023/11/18 05:54:22;;;;;;;;;;;13.90;92.60;;;;;;5070065;28;20031;-71
2023/11/18 05:56:48;;;;;;;;;;;13.90;92.60;;;;;;5070023;28;19913;-70
2023/11/18 05:59:13;;;;;;;;;;;13.90;92.60;;;;;;5069941;28;19917;-71
2023/11/18 06:01:40;;;;;;;;;;;13.90;92.60;;;;;;5068273;28;19934;-69
2023/11/18 06:04:08;;;;;;;;;;;13.90;92.60;;;;;;5069832;28;19916;-70
2023/11/18 06:06:34;;;;;;;;;;;13.90;92.60;;;;;;5069786;28;19930;-69
2023/11/18 06:09:04;;;;;;;;;;;13.90;92.60;;;;;;5069841;28;19909;-70
2023/11/18 06:11:31;;;;;;;;;;;13.90;92.60;;;;;;5069832;28;19912;-69
2023/11/18 06:13:57;;;;;;;;;;;14.00;92.60;;;;;;5068331;28;19922;-69
2023/11/18 06:16:26;;;;;;;;;;;13.90;92.60;;;;;;5069365;28;19908;-69
2023/11/18 06:18:55;;;;;;;;;;;13.90;92.50;;;;;;5069525;28;19912;-70
2023/11/18 06:21:24;;;;;;;;;;;13.90;92.50;;;;;;5069429;28;19963;-70
2023/11/18 06:23:50;;;;;;;;;;;13.90;92.50;;;;;;5069482;28;19912;-69
2023/11/18 06:26:16;;;;;;;;;;;13.80;92.50;;;;;;5069585;28;19909;-70
2023/11/18 06:28:43;;;;;;;;;;;13.80;92.60;;;;;;5069300;28;19916;-69
2023/11/18 06:31:09;;;;;;;;;;;13.80;92.60;;;;;;5069196;28;20342;-69
2023/11/18 06:33:42;;;;;;;;;;;13.80;92.60;;;;;;5069425;28;19919;-70
2023/11/18 06:36:09;;;;;;;;;;;13.90;92.70;;;;;;5069281;28;19962;-70
2023/11/18 06:38:35;;;;;;;;;;;13.90;92.70;;;;;;5069233;28;19909;-70
2023/11/18 06:41:02;;;;;;;;;;;13.90;92.60;;;;;;5069121;28;19913;-70
2023/11/18 06:43:35;;;;;;;;;;;13.90;92.60;;;;;;5069517;28;19912;-69
2023/11/18 06:46:01;;;;;;;;;;;13.90;92.60;;;;;;5069054;28;19917;-70
2023/11/18 06:48:27;;;;;;;;;;;14.00;92.70;;;;;;5069033;28;19920;-69
2023/11/18 06:50:53;;;;;;;;;;;14.00;92.70;;;;;;5068860;28;19919;-69
2023/11/18 06:53:20;;;;;;;;;;;14.00;92.80;;;;;;5068904;28;19916;-70
2023/11/18 06:55:45;;;;;;;;;;;14.10;92.60;;;;;;5069145;28;20036;-70
2023/11/18 06:58:13;;;;;;;;;;;14.10;92.70;;;;;;5067358;28;20507;-70
2023/11/18 07:00:38;;;;;;;;;;;14.10;92.70;;;;;;5068695;28;19977;-69
2023/11/18 07:03:05;;;;;;;;;;;14.10;92.60;;;;;;5068469;28;19995;-70
2023/11/18 07:05:31;;;;;;;;;;;14.10;92.60;;;;;;5068504;28;19917;-70
2023/11/18 07:07:57;;;;;;;;;;;14.00;92.50;;;;;;5068454;28;19917;-70
2023/11/18 07:10:22;;;;;;;;;;;14.00;92.50;;;;;;5067286;28;19917;-70
2023/11/18 07:12:48;;;;;;;;;;;13.90;92.50;;;;;;5066968;28;19970;-69
2023/11/18 07:15:14;;;;;;;;;;;13.80;92.60;;;;;;5068448;28;20280;-70
2023/11/18 07:17:40;;;;;;;;;;;13.70;92.60;;;;;;5068259;28;19919;-70
2023/11/18 07:20:06;;;;;;;;;;;13.70;92.80;;;;;;5068635;28;19969;-70
2023/11/18 07:22:31;;;;;;;;;;;13.70;92.70;;;;;;5068159;28;19917;-70
2023/11/18 07:24:57;;;;;;;;;;;13.60;92.60;;;;;;5068314;28;20091;-70
2023/11/18 07:27:23;;;;;;;;;;;13.60;92.60;;;;;;5066567;28;19912;-70
2023/11/18 07:29:48;;;;;;;;;;;13.60;92.70;;;;;;5067751;28;20278;-70
2023/11/18 07:32:14;;;;;;;;;;;13.60;92.70;;;;;;5067953;28;19920;-70
2023/11/18 07:34:41;;;;;;;;;;;13.60;92.70;;;;;;5068078;28;19997;-70
2023/11/18 07:37:08;;;;;;;;;;;13.60;92.70;;;;;;5067846;28;20281;-70
2023/11/18 07:39:48;;;;;;;;;;;13.60;92.70;;;;;;5067537;28;19957;-70
2023/11/18 07:42:15;;;;;;;;;;;13.60;92.70;;;;;;5067895;28;19913;-70
2023/11/18 07:44:40;;;;;;;;;;;13.60;92.70;;;;;;5068047;28;20007;-70
2023/11/18 07:47:06;;;;;;;;;;;13.60;92.70;;;;;;5067786;28;20003;-70
2023/11/18 07:49:33;;;;;;;;;;;13.50;92.60;;;;;;5066674;28;19912;-70
2023/11/18 07:51:59;;;;;;;;;;;13.50;92.70;;;;;;5067602;28;19916;-70
2023/11/18 07:54:24;;;;;;;;;;;13.50;92.60;;;;;;5049833;28;19912;-70
2023/11/18 07:56:50;;;;;;;;;;;13.50;92.60;;;;;;5067480;28;19921;-71
2023/11/18 07:59:18;;;;;;;;;;;13.50;92.70;;;;;;5067616;28;20402;-70
2023/11/18 08:01:46;;;;;;;;;;;13.50;92.70;;;;;;5067375;28;19931;-70
2023/11/18 08:04:13;;;;;;;;;;;13.50;92.70;;;;;;5067772;28;20288;-70
2023/11/18 08:06:39;;;;;;;;;;;13.50;92.70;;;;;;5066508;28;20057;-70
2023/11/18 08:09:10;;;;;;;;;;;13.50;92.70;;;;;;5067613;28;20003;-70
2023/11/18 08:11:36;;;;;;;;;;;13.60;92.70;;;;;;5067508;28;19908;-70
2023/11/18 08:14:02;;;;;;;;;;;13.60;92.70;;;;;;5066230;28;20293;-70
2023/11/18 08:16:29;;;;;;;;;;;13.60;92.70;;;;;;5067329;28;19919;-64
2023/11/18 08:18:55;;;;;;;;;;;13.60;92.70;;;;;;5067365;28;20396;-70
2023/11/18 08:21:21;;;;;;;;;;;13.60;92.70;;;;;;5067320;28;20439;-70
2023/11/18 08:23:47;;;;;;;;;;;13.60;92.70;;;;;;5067379;28;20286;-70
2023/11/18 08:26:13;;;;;;;;;;;13.60;92.70;;;;;;5049529;28;19916;-70
2023/11/18 08:28:40;;;;;;;;;;;13.60;92.70;;;;;;5066057;28;19917;-70
2023/11/18 08:31:06;;;;;;;;;;;13.60;92.70;;;;;;5067480;28;19916;-70
2023/11/18 08:33:33;;;;;;;;;;;13.60;92.70;;;;;;5065696;28;19961;-70
2023/11/18 08:35:59;;;;;;;;;;;13.60;92.70;;;;;;5067248;28;19915;-70
2023/11/18 08:38:25;;;;;;;;;;;13.60;92.70;;;;;;5067202;28;19930;-70
2023/11/18 08:40:51;;;;;;;;;;;13.60;92.70;;;;;;5069669;28;19916;-70
2023/11/18 08:43:17;;;;;;;;;;;13.70;92.70;;;;;;5071169;28;19916;-70
2023/11/18 08:45:42;;;;;;;;;;;13.70;92.70;;;;;;5071112;28;19962;-70
2023/11/18 08:48:08;;;;;;;;;;;13.80;92.70;;;;;;5070815;28;19986;-70
2023/11/18 08:50:39;;;;;;;;;;;13.80;92.70;;;;;;5071043;28;19913;-70
2023/11/18 08:53:05;;;;;;;;;;;13.90;92.70;;;;;;5070897;28;20280;-70
2023/11/18 08:55:53;;;;;;;;;;;13.90;92.70;;;;;;5069574;28;20373;-70
2023/11/18 08:58:51;;;;;;;;;;;14.00;92.70;;;;;;5070239;28;19912;-70
2023/11/18 09:01:15;;;;;;;;;;;14.10;92.70;;;;;;5067320;28;19928;-70
2023/11/18 09:03:48;;;;;;;;;;;14.20;92.70;;;;;;5070562;28;19928;-70
2023/11/18 09:06:17;;;;;;;;;;;14.30;92.70;;;;;;5070703;28;19973;-70
2023/11/18 09:08:43;;;;;;;;;;;14.30;92.70;;;;;;5070527;28;19920;-70
2023/11/18 09:11:16;;;;;;;;;;;14.40;92.70;;;;;;5070439;28;19920;-70
2023/11/18 09:13:49;;;;;;;;;;;14.40;92.70;;;;;;5070376;28;19912;-69
2023/11/18 09:16:15;;;;;;;;;;;14.50;92.70;;;;;;5070374;28;19908;-69
2023/11/18 09:18:44;;;;;;;;;;;14.60;92.70;;;;;;5070334;28;19916;-70
2023/11/18 09:21:19;;;;;;;;;;;14.60;92.70;;;;;;5070210;28;19908;-69
2023/11/18 09:23:47;;;;;;;;;;;14.70;92.70;;;;;;5068907;28;19908;-69
2023/11/18 09:26:14;;;;;;;;;;;14.70;92.70;;;;;;5070078;28;20003;-70
2023/11/18 09:28:40;;;;;;;;;;;14.70;92.60;;;;;;5070025;28;19919;-70
2023/11/18 09:31:06;;;;;;;;;;;14.70;92.60;;;;;;5068165;28;19916;-70
2023/11/18 09:33:35;;;;;;;;;;;14.80;92.70;;;;;;5070072;28;19916;-68
2023/11/18 09:36:07;;;;;;;;;;;14.80;92.70;;;;;;5070852;28;19913;-70
2023/11/18 09:38:35;;;;;;;;;;;14.80;92.80;;;;;;5071477;28;19912;-70
2023/11/18 09:41:07;;;;;;;;;;;14.90;92.70;;;;;;5091105;28;19916;-69
2023/11/18 09:43:36;;;;;;;;;;;15.00;92.70;;;;;;5090387;28;19983;-69
2023/11/18 09:46:14;;;;;;;;;;;15.00;92.70;;;;;;5076665;28;20015;-70
2023/11/18 09:48:46;;;;;;;;;;;15.00;92.70;;;;;;5076056;28;19961;-70
2023/11/18 09:51:20;;;;;;;;;;;15.00;92.70;;;;;;5088991;28;19999;-71
2023/11/18 09:53:50;;;;;;;;;;;15.00;92.70;;;;;;5078727;28;19913;-72
2023/11/18 09:56:26;;;;;;;;;;;15.00;92.70;;;;;;5070180;28;19912;-71
2023/11/18 09:59:03;;;;;;;;;;;15.10;92.70;;;;;;5078002;28;20372;-71
2023/11/18 10:01:32;;;;;;;;;;;15.10;92.70;;;;;;5070023;28;19932;-71
2023/11/18 10:03:58;;;;;;;;;;;15.10;92.70;;;;;;5072976;28;20069;-71
2023/11/18 10:06:27;;;;;;;;;;;15.10;92.70;;;;;;5078564;28;19947;-71
2023/11/18 10:08:53;;;;;;;;;;;15.10;92.70;;;;;;5078504;28;20417;-73
2023/11/18 10:11:22;;;;;;;;;;;15.20;92.70;;;;;;5071578;28;19912;-74
2023/11/18 10:13:48;;;;;;;;;;;15.20;92.70;;;;;;5080591;28;19928;-73
2023/11/18 10:16:14;;;;;;;;;;;15.20;92.70;;;;;;5077716;28;20267;-74
2023/11/18 10:18:48;;;;;;;;;;;15.20;92.70;;;;;;5079888;28;19999;-74
2023/11/18 10:21:18;;;;;;;;;;;15.30;92.70;;;;;;5079916;28;19912;-74
2023/11/18 10:24:05;;;;;;;;;;;15.30;92.80;;;;;;5078555;28;19919;-74
2023/11/18 10:26:31;;;;;;;;;;;15.30;92.80;;;;;;5078074;28;19977;-74
2023/11/18 10:29:02;;;;;;;;;;;15.40;92.70;;;;;;5078520;28;19916;-74
2023/11/18 10:31:28;;;;;;;;;;;15.40;92.70;;;;;;5079587;28;19916;-74
2023/11/18 10:33:54;;;;;;;;;;;15.40;92.70;;;;;;5078730;28;19961;-74
2023/11/18 10:36:23;;;;;;;;;;;15.40;92.70;;;;;;5076985;28;19967;-74
2023/11/18 10:38:51;;;;;;;;;;;15.50;92.70;;;;;;5081140;28;20383;-73
2023/11/18 10:41:19;;;;;;;;;;;15.50;92.80;;;;;;5080113;28;19958;-74
2023/11/18 10:43:47;;;;;;;;;;;15.50;92.80;;;;;;5074043;28;19947;-74
2023/11/18 10:46:14;;;;;;;;;;;15.60;92.80;;;;;;5081027;28;19991;-74
2023/11/18 10:48:50;;;;;;;;;;;15.60;92.70;;;;;;5077731;28;19960;-74
2023/11/18 10:51:19;;;;;;;;;;;15.60;92.70;;;;;;5078102;28;20007;-74
2023/11/18 10:53:58;;;;;;;;;;;15.60;92.70;;;;;;5077487;28;19923;-75
2023/11/18 10:56:27;;;;;;;;;;;15.70;92.70;;;;;;5078839;28;19936;-74
2023/11/18 10:58:53;;;;;;;;;;;15.70;92.70;;;;;;5082390;28;19967;-74
2023/11/18 11:01:32;;;;;;;;;;;15.60;92.70;;;;;;5076418;28;19920;-72
2023/11/18 11:03:58;;;;;;;;;;;15.70;92.80;;;;;;5068188;28;20384;-71
2023/11/18 11:06:24;;;;;;;;;;;15.70;92.80;;;;;;5067760;28;19957;-72
2023/11/18 11:08:53;;;;;;;;;;;15.80;92.80;;;;;;5067107;28;19912;-70
2023/11/18 11:11:21;;;;;;;;;;;15.80;92.70;;;;;;5081697;28;19985;-70
2023/11/18 11:13:55;;;;;;;;;;;15.90;92.80;;;;;;5079330;28;19927;-71
2023/11/18 11:16:23;;;;;;;;;;;15.90;92.80;;;;;;5084751;28;19912;-71
2023/11/18 11:18:53;;;;;;;;;;;15.90;92.70;;;;;;5069021;28;19909;-70
2023/11/18 11:21:22;;;;;;;;;;;15.90;92.70;;;;;;5073404;28;19919;-71
2023/11/18 11:24:01;;;;;;;;;;;15.90;92.70;;;;;;5087288;28;19908;-71
2023/11/18 11:26:30;;;;;;;;;;;15.90;92.70;;;;;;5088673;28;19912;-71
2023/11/18 11:28:57;;;;;;;;;;;15.90;92.60;;;;;;5082724;28;19912;-72
2023/11/18 11:31:36;;;;;;;;;;;15.80;92.60;;;;;;5068627;28;19920;-75
2023/11/18 11:34:07;;;;;;;;;;;15.70;92.60;;;;;;5068732;28;20674;-72
2023/11/18 11:36:39;;;;;;;;;;;15.60;92.50;;;;;;5068817;28;19908;-76
2023/11/18 11:39:10;;;;;;;;;;;15.50;92.40;;;;;;5067440;28;20283;-76
2023/11/18 11:41:36;;;;;;;;;;;15.30;92.40;;;;;;5066964;28;20360;-74
2023/11/18 11:44:05;;;;;;;;;;;15.10;92.40;;;;;;5068225;28;19920;-74
2023/11/18 11:46:37;;;;;;;;;;;15.00;92.50;;;;;;5067024;28;19919;-73
2023/11/18 11:49:17;;;;;;;;;;;14.90;92.50;;;;;;5066832;28;19916;-72
2023/11/18 11:51:58;;;;;;;;;;;14.80;92.50;;;;;;5068169;28;19928;-73
2023/11/18 11:54:30;;;;;;;;;;;14.80;92.60;;;;;;5067703;28;19913;-73
2023/11/18 11:56:59;;;;;;;;;;;14.90;92.60;;;;;;5066547;28;20383;-71
2023/11/18 11:59:46;;;;;;;;;;;14.90;92.60;;;;;;5067851;28;20041;-72
2023/11/18 12:02:18;;;;;;;;;;;15.00;92.60;;;;;;5066330;28;19947;-74
2023/11/18 12:04:44;;;;;;;;;;;15.10;92.60;;;;;;5068056;28;19915;-77
2023/11/18 12:07:10;;;;;;;;;;;15.10;92.60;;;;;;5066518;28;20038;-71
2023/11/18 12:09:39;;;;;;;;;;;15.20;92.60;;;;;;5068078;28;19957;-73
2023/11/18 12:12:16;;;;;;;;;;;15.30;92.60;;;;;;5067738;28;19912;-73
2023/11/18 12:15:17;;;;;;;;;;;15.40;92.60;;;;;;5073992;28;19975;-72
2023/11/18 12:17:55;;;;;;;;;;;15.40;92.60;;;;;;5082008;28;19915;-74
2023/11/18 12:20:47;;;;;;;;;;;15.50;92.60;;;;;;5087956;28;19912;-73
2023/11/18 12:23:17;;;;;;;;;;;15.60;92.60;;;;;;5089480;28;19915;-79
2023/11/18 12:25:45;;;;;;;;;;;15.60;92.60;;;;;;5089952;28;19908;-79
2023/11/18 12:28:21;;;;;;;;;;;15.50;92.60;;;;;;5078980;28;19923;-77
2023/11/18 12:30:56;;;;;;;;;;;15.50;92.60;;;;;;5077741;28;19999;-79
2023/11/18 12:33:28;;;;;;;;;;;15.50;92.70;;;;;;5076356;28;20034;-77
2023/11/18 12:36:14;;;;;;;;;;;15.50;92.70;;;;;;5084971;28;19926;-78
2023/11/18 12:38:58;;;;;;;;;;;15.50;92.70;;;;;;5079888;28;20392;-76
2023/11/18 12:41:27;;;;;;;;;;;15.50;92.70;;;;;;5076593;28;19918;-79
2023/11/18 12:43:57;;;;;;;;;;;15.50;92.70;;;;;;5070452;28;19959;-78
2023/11/18 12:46:49;;;;;;;;;;;15.50;92.70;;;;;;5071833;28;19908;-76
2023/11/18 12:49:16;;;;;;;;;;;15.40;92.70;;;;;;5074231;28;19981;-77
2023/11/18 12:51:43;;;;;;;;;;;15.40;92.70;;;;;;5071168;28;20573;-78
2023/11/18 12:54:11;;;;;;;;;;;15.50;92.80;;;;;;5075551;28;19913;-76
2023/11/18 12:56:38;;;;;;;;;;;15.40;92.70;;;;;;5082865;28;19915;-76
2023/11/18 12:59:06;;;;;;;;;;;15.40;92.70;;;;;;5075409;28;19999;-78
2023/11/18 13:01:36;;;;;;;;;;;15.40;92.70;;;;;;5066419;28;20273;-77
2023/11/18 13:04:02;;;;;;;;;;;15.40;92.70;;;;;;5068519;28;19915;-79
2023/11/18 13:06:28;;;;;;;;;;;15.40;92.70;;;;;;5068241;28;19969;-77
2023/11/18 13:08:54;;;;;;;;;;;15.50;92.70;;;;;;5071539;28;20332;-78
2023/11/18 13:11:23;;;;;;;;;;;15.40;92.70;;;;;;5089765;28;19916;-79
2023/11/18 13:13:51;;;;;;;;;;;15.50;92.70;;;;;;5069072;28;19917;-78
2023/11/18 13:16:18;;;;;;;;;;;15.50;92.70;;;;;;5067666;28;19991;-79
2023/11/18 13:18:49;;;;;;;;;;;15.40;92.70;;;;;;5066698;28;19916;-78
2023/11/18 13:21:19;;;;;;;;;;;15.40;92.70;;;;;;5068146;28;19915;-78
2023/11/18 13:23:47;;;;;;;;;;;15.30;92.70;;;;;;5068299;28;19908;-76
2023/11/18 13:26:12;;;;;;;;;;;15.30;92.70;;;;;;5069164;28;20250;-78
2023/11/18 13:28:39;;;;;;;;;;;15.30;92.80;;;;;;5071827;28;19927;-77
2023/11/18 13:31:07;;;;;;;;;;;15.30;92.90;;;;;;5071453;28;20345;-77
2023/11/18 13:33:36;;;;;;;;;;;15.40;93.00;;;;;;5071602;28;19947;-77
2023/11/18 13:36:05;;;;;;;;;;;15.40;93.00;;;;;;5071644;28;20411;-80
2023/11/18 13:38:31;;;;;;;;;;;15.50;93.00;;;;;;5071873;28;19970;-76
2023/11/18 13:40:56;;;;;;;;;;;15.50;92.90;;;;;;5071309;28;19913;-77
2023/11/18 13:43:23;;;;;;;;;;;15.50;92.90;;;;;;5071903;28;19913;-79
2023/11/18 13:45:52;;;;;;;;;;;15.50;92.90;;;;;;5067322;28;19949;-79
2023/11/18 13:48:18;;;;;;;;;;;15.50;92.90;;;;;;5071953;28;19918;-77
2023/11/18 13:50:44;;;;;;;;;;;15.60;92.90;;;;;;5072797;28;19912;-78
2023/11/18 13:53:10;;;;;;;;;;;15.60;92.90;;;;;;5071137;28;19924;-77
2023/11/18 13:55:38;;;;;;;;;;;15.50;92.90;;;;;;5071761;28;20365;-76
2023/11/18 13:58:05;;;;;;;;;;;15.50;92.80;;;;;;5071689;28;20412;-77
2023/11/18 14:00:31;;;;;;;;;;;15.50;92.80;;;;;;5069370;28;20359;-77
2023/11/18 14:02:58;;;;;;;;;;;15.40;92.80;;;;;;5071976;28;19944;-79
2023/11/18 14:05:24;;;;;;;;;;;15.40;92.80;;;;;;5072085;28;19932;-79
2023/11/18 14:07:55;;;;;;;;;;;15.40;92.80;;;;;;5071504;28;20028;-78
2023/11/18 14:10:24;;;;;;;;;;;15.30;92.70;;;;;;5073875;28;19916;-76
2023/11/18 14:13:00;;;;;;;;;;;15.30;92.80;;;;;;5071610;28;19916;-82
2023/11/18 14:15:25;;;;;;;;;;;15.20;92.80;;;;;;5072642;28;19985;-79
2023/11/18 14:17:52;;;;;;;;;;;15.20;92.80;;;;;;5071189;28;20314;-65
2023/11/18 14:20:19;;;;;;;;;;;15.10;92.80;;;;;;5071378;28;20369;-79
2023/11/18 14:22:45;;;;;;;;;;;15.20;92.80;;;;;;5074786;28;19974;-78